Time;durP1;ratioP1;P1;durP2;ratioP2;P2;SDS_P1;SDS_P2;PMS_P1;PMS_P2;Temp;Humidity;BMP_temperature;BMP_pressure;BME280_temperature;BME280_humidity;BME280_pressure;Samples;Min_cycle;Max_cycle;Signal;HPM_P1;HPM_P2
2023/10/04 00:00:20;;;;;;;4.82;1.98;;;;;;;16.28;65.94;97786.91;5079141;28;20097;-80
2023/10/04 00:02:51;;;;;;;2.80;1.95;;;;;;;16.30;66.14;97778.84;5079515;28;20048;-80
2023/10/04 00:05:23;;;;;;;3.22;1.40;;;;;;;16.34;66.22;97783.53;5078433;28;20053;-80
2023/10/04 00:07:52;;;;;;;3.15;1.80;;;;;;;16.35;66.51;97782.50;5078390;28;20062;-79
2023/10/04 00:10:21;;;;;;;2.90;1.80;;;;;;;16.35;65.27;97794.88;5077861;28;20132;-80
2023/10/04 00:12:51;;;;;;;1.98;1.33;;;;;;;16.36;65.73;97801.78;5077300;28;20488;-80
2023/10/04 00:15:20;;;;;;;2.85;1.92;;;;;;;16.39;65.25;97794.28;5077289;28;20058;-80
2023/10/04 00:17:52;;;;;;;4.82;2.08;;;;;;;16.38;64.86;97797.94;5077704;28;20053;-80
2023/10/04 00:20:31;;;;;;;3.90;2.20;;;;;;;16.35;65.06;97787.78;5077192;28;20068;-80
2023/10/04 00:23:00;;;;;;;2.80;1.73;;;;;;;16.39;65.27;97782.97;5083534;28;20051;-80
2023/10/04 00:25:28;;;;;;;4.55;2.40;;;;;;;16.38;64.66;97786.59;5076990;28;20080;-80
2023/10/04 00:27:57;;;;;;;3.10;1.77;;;;;;;16.34;64.35;97793.25;5077559;28;20060;-80
2023/10/04 00:30:27;;;;;;;3.63;2.08;;;;;;;16.34;65.26;97794.06;5076849;28;20117;-80
2023/10/04 00:32:58;;;;;;;3.22;1.95;;;;;;;16.31;64.15;97790.97;5076123;28;20048;-80
2023/10/04 00:35:28;;;;;;;2.83;1.48;;;;;;;16.27;65.30;97785.28;5077273;28;20071;-80
2023/10/04 00:37:57;;;;;;;3.85;1.77;;;;;;;16.27;65.08;97790.56;5076228;28;20056;-80
2023/10/04 00:40:27;;;;;;;1.67;1.35;;;;;;;16.30;64.91;97792.00;5076667;28;20131;-80
2023/10/04 00:42:57;;;;;;;3.28;1.50;;;;;;;16.32;64.87;97790.78;5077384;28;20049;-80
2023/10/04 00:45:26;;;;;;;4.18;1.70;;;;;;;16.32;65.26;97801.31;5075506;28;20070;-80
2023/10/04 00:47:57;;;;;;;2.70;1.40;;;;;;;16.31;64.69;97804.97;5077615;28;20412;-80
2023/10/04 00:50:31;;;;;;;;;;;;;;;16.32;64.70;97797.88;5076663;28;20072;-80
2023/10/04 00:53:03;;;;;;;2.90;1.77;;;;;;;16.28;63.98;97797.44;5077080;28;19920;-80
2023/10/04 00:55:34;;;;;;;2.42;1.58;;;;;;;16.25;65.56;97792.56;5076462;28;20086;-79
2023/10/04 00:58:05;;;;;;;4.27;2.17;;;;;;;16.21;64.33;97788.66;5076786;28;20055;-80
2023/10/04 01:00:34;;;;;;;3.28;1.98;;;;;;;16.10;64.30;97794.44;5071611;22;20531;-79
2023/10/04 01:03:01;;;;;;;3.10;1.85;;;;;;;16.00;65.17;97787.66;5037329;28;20066;-79
2023/10/04 01:05:32;;;;;;;3.55;1.80;;;;;;;15.91;64.75;97786.13;5036836;28;20144;-79
2023/10/04 01:08:01;;;;;;;5.03;2.50;;;;;;;15.81;65.22;97786.47;5037377;28;20073;-80
2023/10/04 01:10:32;;;;;;;3.47;2.10;;;;;;;15.73;65.22;97789.19;5036915;28;20516;-79
2023/10/04 01:13:01;;;;;;;4.75;1.98;;;;;;;15.62;65.22;97789.63;5036438;28;20572;-79
2023/10/04 01:15:32;;;;;;;5.47;2.05;;;;;;;15.50;65.66;97791.09;5036459;28;20077;-79
2023/10/04 01:18:02;;;;;;;5.57;2.20;;;;;;;15.41;65.59;97790.38;5036200;28;20073;-79
2023/10/04 01:20:33;;;;;;;6.43;2.25;;;;;;;15.30;65.79;97788.22;5036094;28;20421;-81
2023/10/04 01:23:05;;;;;;;2.20;1.80;;;;;;;15.18;66.20;97791.31;5036494;28;20054;-82
2023/10/04 01:25:35;;;;;;;3.60;2.20;;;;;;;15.10;66.24;97780.88;5035625;28;20111;-82
2023/10/04 01:28:07;;;;;;;3.58;2.03;;;;;;;15.06;66.59;97776.97;5035959;28;20049;-81
2023/10/04 01:30:35;;;;;;;5.65;2.88;;;;;;;15.00;66.27;97777.72;5035788;28;20152;-81
2023/10/04 01:33:04;;;;;;;4.60;1.95;;;;;;;14.91;66.52;97773.53;5036271;28;20053;-81
2023/10/04 01:35:33;;;;;;;3.92;1.92;;;;;;;14.82;66.73;97773.66;5035303;28;20057;-81
2023/10/04 01:38:06;;;;;;;3.05;1.92;;;;;;;14.77;67.00;97775.97;5034499;28;20060;-81
2023/10/04 01:40:35;;;;;;;3.53;2.20;;;;;;;14.76;66.92;97776.97;5034771;28;20057;-82
2023/10/04 01:43:15;;;;;;;3.65;1.80;;;;;;;14.73;66.74;97777.31;5035406;28;20061;-80
2023/10/04 01:45:45;;;;;;;3.88;1.90;;;;;;;14.69;66.68;97781.28;5035920;28;20053;-81
2023/10/04 01:48:15;;;;;;;4.03;2.30;;;;;;;14.68;66.73;97790.19;5035037;28;20054;-81
2023/10/04 01:50:43;;;;;;;5.50;2.20;;;;;;;14.66;66.81;97792.16;5037093;28;20132;-80
2023/10/04 01:53:13;;;;;;;2.40;1.98;;;;;;;14.65;67.13;97793.19;5038398;28;20049;-81
2023/10/04 01:55:40;;;;;;;6.85;2.10;;;;;;;14.59;66.91;97786.00;5038727;28;20042;-81
2023/10/04 01:58:08;;;;;;;3.00;2.28;;;;;;;14.55;67.04;97795.22;5039120;28;20079;-81
2023/10/04 02:00:36;;;;;;;6.28;2.08;;;;;;;14.51;67.19;97786.84;5038329;28;20099;-81
2023/10/04 02:03:07;;;;;;;3.38;2.03;;;;;;;14.47;67.57;97797.88;5038445;28;20049;-81
2023/10/04 02:05:37;;;;;;;5.82;2.20;;;;;;;14.43;67.52;97793.00;5038807;28;20057;-81
2023/10/04 02:08:12;;;;;;;3.42;1.85;;;;;;;14.40;67.56;97793.34;5038218;28;20053;-81
2023/10/04 02:10:44;;;;;;;3.08;2.08;;;;;;;14.37;67.74;97792.91;5038219;28;20116;-81
2023/10/04 02:13:15;;;;;;;4.80;1.83;;;;;;;14.34;67.71;97793.22;5037691;28;20441;-81
2023/10/04 02:15:44;;;;;;;3.53;2.10;;;;;;;14.30;68.11;97782.28;5038081;28;20053;-81
2023/10/04 02:18:11;;;;;;;6.10;1.85;;;;;;;14.28;68.07;97784.25;5038015;28;20591;-81
2023/10/04 02:20:46;;;;;;;5.82;2.40;;;;;;;14.28;68.18;97771.16;5037938;28;20049;-81
2023/10/04 02:23:14;;;;;;;3.42;2.25;;;;;;;14.28;68.42;97784.25;5037538;28;20049;-81
2023/10/04 02:25:43;;;;;;;2.83;2.05;;;;;;;14.30;68.45;97784.06;5037732;28;20097;-82
2023/10/04 02:28:11;;;;;;;4.10;2.10;;;;;;;14.33;68.24;97789.78;5037137;28;20075;-81
2023/10/04 02:30:39;;;;;;;3.78;2.10;;;;;;;14.39;68.47;97789.09;5037501;28;20049;-82
2023/10/04 02:33:13;;;;;;;5.30;1.90;;;;;;;14.43;67.88;97789.56;5037848;28;20045;-81
2023/10/04 02:35:44;;;;;;;3.40;1.83;;;;;;;14.42;68.02;97787.91;5037639;28;20081;-82
2023/10/04 02:38:24;;;;;;;2.67;1.48;;;;;;;14.39;67.77;97786.47;5037730;28;20478;-82
2023/10/04 02:40:54;;;;;;;3.33;1.80;;;;;;;14.35;68.22;97790.44;5036820;28;20096;-81
2023/10/04 02:43:25;;;;;;;4.20;2.00;;;;;;;14.33;68.10;97797.66;5049896;28;20061;-80
2023/10/04 02:45:53;;;;;;;3.25;2.22;;;;;;;14.33;68.41;97789.78;5059147;28;20056;-80
2023/10/04 02:48:22;;;;;;;4.20;2.10;;;;;;;14.37;68.15;97792.91;5058546;28;20049;-80
2023/10/04 02:50:51;;;;;;;4.18;1.73;;;;;;;14.40;68.49;97782.84;5058687;28;20029;-81
2023/10/04 02:53:20;;;;;;;6.07;2.22;;;;;;;14.45;68.89;97786.75;5058657;28;20060;-81
2023/10/04 02:55:49;;;;;;;2.50;1.80;;;;;;;14.54;68.85;97790.94;5057644;28;20041;-80
2023/10/04 02:58:19;;;;;;;4.63;1.95;;;;;;;14.64;69.32;97802.03;5042124;28;20050;-81
2023/10/04 03:00:49;;;;;;;4.28;1.80;;;;;;;14.71;69.25;97792.44;5037880;28;20088;-81
2023/10/04 03:03:24;;;;;;;3.38;1.67;;;;;;;14.77;68.46;97794.34;5037858;28;20049;-81
2023/10/04 03:05:55;;;;;;;4.63;1.80;;;;;;;14.78;67.72;97785.50;5037502;28;20099;-81
2023/10/04 03:08:23;;;;;;;4.20;1.90;;;;;;;14.77;66.74;97794.34;5037102;28;20049;-81
2023/10/04 03:10:55;;;;;;;3.72;2.15;;;;;;;14.71;66.75;97787.19;5036561;28;20057;-81
2023/10/04 03:13:25;;;;;;;2.95;1.73;;;;;;;14.65;67.13;97798.44;5036362;28;20091;-82
2023/10/04 03:15:54;;;;;;;5.05;1.88;;;;;;;14.67;67.60;97803.47;5036195;28;20087;-81
2023/10/04 03:18:25;;;;;;;6.20;2.45;;;;;;;14.70;67.30;97798.69;5036188;28;20049;-81
2023/10/04 03:21:10;;;;;;;17.57;3.63;;;;;;;14.68;66.22;97805.94;5036249;28;20103;-82
2023/10/04 03:23:40;;;;;;;4.15;1.95;;;;;;;14.55;66.20;97797.84;5036056;28;20394;-81
2023/10/04 03:26:12;;;;;;;5.27;2.07;;;;;;;14.54;66.96;97809.31;5036347;28;20080;-82
2023/10/04 03:28:42;;;;;;;6.45;2.38;;;;;;;14.58;66.38;97821.13;5035738;28;20054;-81
2023/10/04 03:31:11;;;;;;;6.95;2.22;;;;;;;14.61;67.16;97812.91;5035632;28;20474;-81
2023/10/04 03:33:39;;;;;;;8.90;2.58;;;;;;;14.62;66.26;97811.91;5035508;28;20049;-81
2023/10/04 03:36:07;;;;;;;6.45;2.05;;;;;;;14.54;65.89;97819.81;5036092;28;20049;-81
2023/10/04 03:38:35;;;;;;;5.13;2.20;;;;;;;14.39;66.00;97823.22;5036258;28;20120;-81
2023/10/04 03:41:03;;;;;;;3.70;1.90;;;;;;;14.26;66.13;97823.00;5035333;28;20050;-81
2023/10/04 03:43:32;;;;;;;3.75;2.28;;;;;;;14.16;66.34;97819.78;5035133;28;20054;-81
2023/10/04 03:46:16;;;;;;;4.68;2.50;;;;;;;14.02;66.56;97822.16;5035381;28;20041;-81
2023/10/04 03:48:45;;;;;;;3.53;2.00;;;;;;;13.93;67.03;97812.72;5035231;28;20100;-81
2023/10/04 03:51:13;;;;;;;4.85;2.05;;;;;;;13.85;67.20;97815.38;5035096;28;20068;-81
2023/10/04 03:53:42;;;;;;;4.05;2.50;;;;;;;13.78;67.36;97804.75;5035195;28;20107;-81
2023/10/04 03:56:10;;;;;;;3.63;2.53;;;;;;;13.73;67.54;97811.50;5035131;28;20057;-81
2023/10/04 03:58:39;;;;;;;7.20;2.58;;;;;;;13.69;67.79;97818.09;5034601;28;20041;-81
2023/10/04 04:01:10;;;;;;;8.52;2.95;;;;;;;13.64;67.93;97808.09;5035136;28;20107;-81
2023/10/04 04:03:37;;;;;;;5.18;2.42;;;;;;;13.63;67.99;97814.34;5053797;28;20076;-81
2023/10/04 04:06:05;;;;;;;4.28;2.15;;;;;;;13.71;69.08;97813.47;5054354;28;20427;-81
2023/10/04 04:08:33;;;;;;;5.40;1.92;;;;;;;13.81;68.54;97806.22;5053752;28;20069;-81
2023/10/04 04:11:01;;;;;;;3.05;1.92;;;;;;;13.87;67.41;97816.00;5044201;28;20046;-81
2023/10/04 04:13:29;;;;;;;3.50;2.10;;;;;;;13.83;67.42;97814.72;5040377;28;20053;-81
2023/10/04 04:15:57;;;;;;;4.68;2.63;;;;;;;13.77;67.27;97816.25;5044405;28;20072;-80
2023/10/04 04:18:26;;;;;;;6.40;2.42;;;;;;;13.71;67.17;97821.31;5046867;28;20049;-80
2023/10/04 04:20:54;;;;;;;4.15;2.60;;;;;;;13.63;67.10;97810.91;5038623;28;20041;-81
2023/10/04 04:23:22;;;;;;;5.43;2.20;;;;;;;13.53;67.32;97811.09;5035394;28;20075;-81
2023/10/04 04:25:50;;;;;;;3.55;2.25;;;;;;;13.43;67.60;97798.22;5034720;28;20137;-81
2023/10/04 04:28:18;;;;;;;2.90;2.17;;;;;;;13.37;67.87;97798.88;5035239;28;20061;-81
2023/10/04 04:30:47;;;;;;;7.93;2.53;;;;;;;13.33;67.91;97794.97;5034865;28;20145;-81
2023/10/04 04:33:17;;;;;;;3.85;2.25;;;;;;;13.30;68.12;97795.31;5034367;28;20053;-81
2023/10/04 04:35:51;;;;;;;3.58;2.10;;;;;;;13.23;68.04;97799.53;5033967;28;20105;-81
2023/10/04 04:38:21;;;;;;;2.90;2.10;;;;;;;13.17;67.94;97795.81;5034685;28;20053;-81
2023/10/04 04:40:52;;;;;;;2.95;2.28;;;;;;;13.10;68.06;97800.09;5033823;28;20045;-81
2023/10/04 04:43:36;;;;;;;3.92;2.08;;;;;;;13.04;68.21;97806.81;5033613;28;20045;-81
2023/10/04 04:46:09;;;;;;;6.72;2.20;;;;;;;13.01;68.25;97801.91;5033142;28;20049;-81
2023/10/04 04:48:37;;;;;;;3.15;2.60;;;;;;;12.97;68.31;97808.47;5033477;28;20077;-81
2023/10/04 04:51:11;;;;;;;4.55;2.30;;;;;;;12.98;68.41;97805.66;5033585;28;20049;-81
2023/10/04 04:53:40;;;;;;;4.70;2.22;;;;;;;13.02;68.29;97807.97;5033146;28;20493;-81
2023/10/04 04:56:12;;;;;;;6.47;2.40;;;;;;;13.06;68.39;97811.91;5033234;28;20052;-81
2023/10/04 04:58:40;;;;;;;6.40;2.90;;;;;;;13.14;68.95;97811.84;5033528;28;20084;-81
2023/10/04 05:01:11;;;;;;;14.35;3.40;;;;;;;13.23;68.67;97812.66;5032732;28;20552;-81
2023/10/04 05:03:41;;;;;;;9.50;3.28;;;;;;;13.29;67.84;97819.88;5033605;28;20073;-81
2023/10/04 05:06:13;;;;;;;5.20;2.47;;;;;;;13.27;67.35;97824.44;5032782;28;20053;-81
2023/10/04 05:08:41;;;;;;;6.15;2.42;;;;;;;13.25;67.25;97821.16;5033067;28;20061;-81
2023/10/04 05:11:09;;;;;;;8.65;3.05;;;;;;;13.16;67.11;97826.44;5033214;28;20053;-81
2023/10/04 05:13:37;;;;;;;8.43;3.05;;;;;;;13.09;67.40;97822.84;5032878;28;20487;-81
2023/10/04 05:16:05;;;;;;;8.80;2.63;;;;;;;13.04;67.71;97830.38;5032685;28;20497;-81
2023/10/04 05:18:33;;;;;;;11.10;3.50;;;;;;;13.03;67.67;97823.53;5033201;28;20053;-81
2023/10/04 05:21:05;;;;;;;6.43;2.50;;;;;;;12.99;67.35;97824.84;5032899;28;20052;-81
2023/10/04 05:23:34;;;;;;;6.03;2.70;;;;;;;12.92;67.35;97829.09;5033095;28;20132;-81
2023/10/04 05:26:03;;;;;;;5.68;2.25;;;;;;;12.84;67.63;97831.75;5036490;28;20107;-82
2023/10/04 05:28:33;;;;;;;5.30;2.58;;;;;;;12.75;67.72;97821.28;5037073;28;20057;-81
2023/10/04 05:31:02;;;;;;;9.73;2.65;;;;;;;12.70;67.96;97820.13;5036787;28;20402;-81
2023/10/04 05:33:30;;;;;;;6.93;2.50;;;;;;;12.63;67.94;97819.97;5036546;28;20055;-81
2023/10/04 05:36:01;;;;;;;9.05;3.10;;;;;;;12.58;68.15;97828.31;5036590;28;20509;-81
2023/10/04 05:38:29;;;;;;;4.25;2.67;;;;;;;12.54;68.37;97826.19;5036369;28;20507;-81
2023/10/04 05:41:00;;;;;;;6.30;2.53;;;;;;;12.51;68.60;97831.75;5036196;28;20525;-81
2023/10/04 05:43:28;;;;;;;6.57;2.35;;;;;;;12.56;68.51;97826.84;5036348;28;20081;-81
2023/10/04 05:45:57;;;;;;;5.88;2.40;;;;;;;12.59;68.16;97831.72;5035997;28;20092;-81
2023/10/04 05:48:26;;;;;;;5.93;2.55;;;;;;;12.59;68.58;97829.13;5036199;28;20055;-81
2023/10/04 05:50:55;;;;;;;10.30;2.45;;;;;;;12.62;68.30;97828.00;5036137;28;20513;-81
2023/10/04 05:53:22;;;;;;;3.70;2.08;;;;;;;12.61;68.71;97821.91;5036420;28;20091;-81
2023/10/04 05:55:50;;;;;;;8.80;2.92;;;;;;;12.64;68.13;97832.09;5036134;28;20145;-81
2023/10/04 05:58:21;;;;;;;5.55;2.58;;;;;;;12.67;68.88;97839.59;5036013;28;20049;-81
2023/10/04 06:00:51;;;;;;;8.82;2.83;;;;;;;12.71;68.01;97834.84;5035813;28;20045;-81
2023/10/04 06:03:21;;;;;;;5.68;2.53;;;;;;;12.68;67.69;97838.63;5035724;28;20080;-81
2023/10/04 06:05:50;;;;;;;6.68;2.80;;;;;;;12.65;67.80;97831.09;5035509;28;20467;-81
2023/10/04 06:08:19;;;;;;;5.78;2.85;;;;;;;12.65;67.64;97832.88;5036311;28;20046;-81
2023/10/04 06:10:50;;;;;;;4.10;2.30;;;;;;;12.64;67.92;97832.09;5035932;28;20065;-81
2023/10/04 06:13:22;;;;;;;3.65;2.00;;;;;;;12.67;68.13;97826.50;5035648;28;20061;-81
2023/10/04 06:15:53;;;;;;;4.93;2.45;;;;;;;12.80;68.02;97830.44;5035348;28;20072;-82
2023/10/04 06:18:28;;;;;;;6.95;2.80;;;;;;;12.86;67.71;97830.59;5035542;28;20049;-81
2023/10/04 06:20:56;;;;;;;5.53;2.78;;;;;;;12.94;67.58;97832.34;5036092;28;20048;-81
2023/10/04 06:23:24;;;;;;;4.65;2.70;;;;;;;13.08;68.03;97838.75;5035899;28;20052;-81
2023/10/04 06:25:52;;;;;;;6.03;3.42;;;;;;;13.22;67.44;97845.09;5035649;28;20111;-81
2023/10/04 06:28:21;;;;;;;6.70;3.63;;;;;;;13.31;67.08;97846.72;5035682;28;20061;-81
2023/10/04 06:30:49;;;;;;;5.85;3.22;;;;;;;13.42;66.77;97850.78;5035712;28;20084;-81
2023/10/04 06:33:18;;;;;;;12.93;3.20;;;;;;;13.59;66.45;97853.19;5035796;28;20061;-81
2023/10/04 06:35:46;;;;;;;9.52;3.60;;;;;;;13.66;66.16;97857.75;5035278;28;20064;-81
2023/10/04 06:38:14;;;;;;;13.80;4.20;;;;;;;13.75;66.41;97854.09;5035800;28;20050;-81
2023/10/04 06:40:42;;;;;;;18.35;4.78;;;;;;;13.90;66.79;97856.81;5035778;28;20077;-81
2023/10/04 06:43:11;;;;;;;16.20;5.00;;;;;;;13.99;65.81;97864.50;5035511;28;20136;-81
2023/10/04 06:45:41;;;;;;;24.88;5.85;;;;;;;14.13;67.88;97870.00;5035655;28;20087;-81
2023/10/04 06:48:09;;;;;;;24.48;6.55;;;;;;;14.31;66.49;97867.88;5036014;28;20053;-81
2023/10/04 06:50:38;;;;;;;22.15;5.80;;;;;;;14.52;66.95;97869.88;5036135;28;20065;-81
2023/10/04 06:53:08;;;;;;;29.10;6.50;;;;;;;14.75;66.30;97872.53;5036227;28;20487;-82
2023/10/04 06:55:37;;;;;;;27.52;6.50;;;;;;;14.92;65.52;97869.75;5036107;28;20115;-81
2023/10/04 06:58:06;;;;;;;27.30;6.55;;;;;;;15.03;66.16;97866.69;5036281;28;20107;-81
2023/10/04 07:00:36;;;;;;;14.82;5.88;;;;;;;15.22;65.34;97868.00;5133491;22;20512;-78
2023/10/04 07:03:07;;;;;;;10.60;5.63;;;;;;;15.44;66.06;97872.34;5053737;28;20590;-77
2023/10/04 07:05:38;;;;;;;12.93;5.80;;;;;;;15.61;64.77;97880.88;5053739;28;20128;-77
2023/10/04 07:08:08;;;;;;;9.88;5.00;;;;;;;15.83;64.20;97875.69;5053820;28;20143;-77
2023/10/04 07:10:37;;;;;;;11.15;5.05;;;;;;;16.01;62.13;97870.88;5054199;28;20053;-78
2023/10/04 07:13:06;;;;;;;8.95;5.00;;;;;;;16.17;62.81;97877.72;5053751;28;20041;-77
2023/10/04 07:15:39;;;;;;;9.68;5.28;;;;;;;16.40;62.68;97877.56;5053706;28;20045;-77
2023/10/04 07:18:10;;;;;;;8.60;5.60;;;;;;;16.59;60.05;97884.03;5053633;28;20056;-77
2023/10/04 07:20:39;;;;;;;13.88;5.53;;;;;;;16.77;61.45;97878.31;5053784;28;20056;-78
2023/10/04 07:23:09;;;;;;;14.60;5.53;;;;;;;16.98;59.43;97884.59;5053389;28;20432;-77
2023/10/04 07:25:38;;;;;;;13.20;6.25;;;;;;;17.11;58.67;97889.97;5053224;28;20057;-77
2023/10/04 07:28:09;;;;;;;13.57;5.88;;;;;;;17.27;58.37;97892.34;5053658;28;20060;-77
2023/10/04 07:30:39;;;;;;;12.50;5.80;;;;;;;17.50;57.66;97896.53;5053760;28;20080;-77
2023/10/04 07:33:09;;;;;;;8.43;5.45;;;;;;;17.81;57.68;97905.81;5053258;28;20064;-77
2023/10/04 07:35:39;;;;;;;7.82;3.30;;;;;;;18.09;56.72;97901.28;5053484;28;20421;-77
2023/10/04 07:38:06;;;;;;;5.25;2.58;;;;;;;18.34;56.33;97903.41;5053499;28;20271;-77
2023/10/04 07:40:35;;;;;;;4.22;1.95;;;;;;;18.58;54.91;97914.44;5053719;28;20045;-77
2023/10/04 07:43:03;;;;;;;4.05;2.10;;;;;;;18.73;54.39;97923.00;5053438;28;20069;-77
2023/10/04 07:45:31;;;;;;;3.55;1.92;;;;;;;18.85;54.17;97917.97;5054075;28;20143;-77
2023/10/04 07:48:00;;;;;;;3.40;1.80;;;;;;;18.98;54.01;97915.34;5053756;28;20053;-78
2023/10/04 07:50:31;;;;;;;5.28;1.77;;;;;;;19.13;53.00;97917.75;5054559;28;20049;-78
2023/10/04 07:53:04;;;;;;;3.10;1.80;;;;;;;19.27;52.80;97911.44;5054327;28;20049;-78
2023/10/04 07:55:33;;;;;;;3.88;2.17;;;;;;;19.61;51.84;97912.19;5054271;28;20059;-78
2023/10/04 07:58:03;;;;;;;2.72;2.10;;;;;;;20.51;50.43;97919.41;5054620;28;20053;-78
2023/10/04 08:00:32;;;;;;;4.25;1.85;;;;;;;21.49;47.48;97918.91;5054331;28;20055;-78
2023/10/04 08:02:59;;;;;;;4.75;2.10;;;;;;;22.02;46.05;97920.19;5054852;28;20055;-78
2023/10/04 08:05:31;;;;;;;4.70;1.58;;;;;;;21.83;45.61;97916.72;5074244;28;20113;-77
2023/10/04 08:08:01;;;;;;;4.88;1.95;;;;;;;21.51;46.02;97910.72;5076733;28;20087;-78
2023/10/04 08:10:33;;;;;;;8.35;1.75;;;;;;;21.26;46.41;97900.94;5056640;28;20053;-78
2023/10/04 08:13:02;;;;;;;4.43;2.38;;;;;;;21.21;47.42;97906.09;5056226;28;20507;-78
2023/10/04 08:15:31;;;;;;;3.22;1.83;;;;;;;21.32;47.31;97910.69;5055899;28;20106;-78
2023/10/04 08:18:01;;;;;;;4.40;1.77;;;;;;;21.55;46.08;97906.59;5055699;28;20048;-78
2023/10/04 08:20:32;;;;;;;3.88;1.92;;;;;;;21.79;45.29;97907.56;5055317;28;20049;-78
2023/10/04 08:23:03;;;;;;;2.78;1.45;;;;;;;22.01;44.91;97907.94;5055527;28;20099;-79
2023/10/04 08:25:32;;;;;;;3.28;1.70;;;;;;;22.15;44.47;97903.25;5054851;28;20045;-79
2023/10/04 08:28:00;;;;;;;3.78;1.98;;;;;;;22.29;44.86;97914.56;5057927;28;20032;-79
2023/10/04 08:30:30;;;;;;;4.60;1.80;;;;;;;22.38;44.40;97921.19;5061626;28;20049;-78
2023/10/04 08:32:59;;;;;;;3.50;2.17;;;;;;;22.45;44.12;97913.13;5059082;28;20081;-79
2023/10/04 08:35:28;;;;;;;4.25;1.60;;;;;;;22.52;43.79;97920.00;5052959;28;20048;-79
2023/10/04 08:38:00;;;;;;;2.17;1.50;;;;;;;22.53;43.29;97920.78;5055269;28;20139;-79
2023/10/04 08:40:30;;;;;;;2.13;1.58;;;;;;;22.55;43.87;97924.84;5055366;28;20482;-78
2023/10/04 08:42:59;;;;;;;4.55;1.98;;;;;;;22.61;43.32;97923.94;5055182;28;20114;-78
2023/10/04 08:45:29;;;;;;;5.20;1.70;;;;;;;22.76;43.42;97917.38;5054668;28;20499;-79
2023/10/04 08:47:57;;;;;;;4.78;1.92;;;;;;;22.91;42.98;97928.41;5054489;28;20063;-79
2023/10/04 08:50:32;;;;;;;2.83;1.70;;;;;;;23.06;42.36;97929.84;5054515;28;20091;-79
2023/10/04 08:53:04;;;;;;;4.75;1.83;;;;;;;23.15;41.74;97923.16;5052117;28;20068;-77
2023/10/04 08:55:41;;;;;;;2.42;1.30;;;;;;;23.26;42.09;97917.00;5054272;28;20071;-78
2023/10/04 08:58:10;;;;;;;2.70;1.58;;;;;;;23.42;41.48;97916.34;5054081;28;20060;-79
2023/10/04 09:00:44;;;;;;;3.20;1.60;;;;;;;23.64;41.02;97910.41;5054357;28;20132;-79
2023/10/04 09:03:13;;;;;;;2.88;1.40;;;;;;;23.91;39.78;97913.41;5054093;28;20052;-79
2023/10/04 09:05:46;;;;;;;5.07;1.88;;;;;;;24.29;39.25;97897.88;5054000;28;20084;-78
2023/10/04 09:08:15;;;;;;;3.10;1.50;;;;;;;24.63;38.75;97907.59;5053711;28;20053;-79
2023/10/04 09:10:44;;;;;;;3.65;1.40;;;;;;;25.03;37.64;97903.97;5057085;28;20067;-78
2023/10/04 09:13:13;;;;;;;3.42;1.60;;;;;;;25.45;37.34;97890.22;5058164;28;20055;-79
2023/10/04 09:15:41;;;;;;;2.85;1.20;;;;;;;25.88;36.57;97888.66;5056697;28;20045;-79
2023/10/04 09:18:09;;;;;;;2.13;1.35;;;;;;;26.13;35.67;97890.03;5056391;28;20060;-79
2023/10/04 09:20:38;;;;;;;3.50;1.48;;;;;;;26.18;34.73;97890.06;5054948;28;20437;-79
2023/10/04 09:23:16;;;;;;;3.33;1.52;;;;;;;26.25;34.73;97890.69;5055039;28;20052;-79
2023/10/04 09:25:46;;;;;;;6.57;1.70;;;;;;;26.39;34.25;97882.25;5054978;28;20053;-79
2023/10/04 09:28:15;;;;;;;4.10;1.38;;;;;;;26.59;34.60;97877.16;5055489;28;20132;-79
2023/10/04 09:30:43;;;;;;;4.55;0.90;;;;;;;26.83;34.41;97880.28;5054674;28;20143;-79
2023/10/04 09:33:23;;;;;;;3.15;1.23;;;;;;;27.05;32.52;97882.88;5054792;28;20420;-78
2023/10/04 09:35:51;;;;;;;4.32;1.23;;;;;;;27.12;33.29;97883.44;5054352;28;20049;-79
2023/10/04 09:38:21;;;;;;;1.98;1.20;;;;;;;27.34;32.70;97887.91;5054682;28;20590;-79
2023/10/04 09:40:55;;;;;;;5.10;0.95;;;;;;;27.35;32.44;97891.38;5054406;28;20053;-79
2023/10/04 09:43:36;;;;;;;2.78;1.45;;;;;;;27.33;32.28;97886.28;5054605;28;20099;-79
2023/10/04 09:46:06;;;;;;;1.95;1.05;;;;;;;27.26;32.70;97877.66;5053907;28;20059;-79
2023/10/04 09:48:37;;;;;;;3.05;0.98;;;;;;;27.29;32.46;97877.97;5054655;28;20049;-79
2023/10/04 09:51:06;;;;;;;2.77;1.23;;;;;;;27.32;31.79;97877.44;5054940;28;20057;-79
2023/10/04 09:53:38;;;;;;;4.07;1.10;;;;;;;27.12;31.68;97882.66;5054736;28;20087;-79
2023/10/04 09:56:11;;;;;;;3.00;1.10;;;;;;;26.80;32.50;97879.97;5053962;28;20056;-78
2023/10/04 09:58:46;;;;;;;6.55;3.88;;;;;;;26.64;33.00;97876.38;5054410;28;20052;-79
2023/10/04 10:01:15;;;;;;;3.25;1.70;;;;;;;26.76;32.98;97886.91;5054094;28;20049;-79
2023/10/04 10:03:51;;;;;;;4.03;1.98;;;;;;;26.90;33.55;97888.09;5054651;28;20049;-79
2023/10/04 10:06:22;;;;;;;5.13;1.42;;;;;;;26.95;32.49;97882.78;5054940;28;20053;-79
2023/10/04 10:08:53;;;;;;;2.55;1.25;;;;;;;27.01;32.83;97880.97;5054718;28;20049;-79
2023/10/04 10:11:23;;;;;;;3.80;1.77;;;;;;;27.18;32.19;97872.75;5055810;28;20049;-79
2023/10/04 10:13:51;;;;;;;3.25;1.42;;;;;;;27.36;32.33;97883.09;5057455;28;20051;-78
2023/10/04 10:16:20;;;;;;;2.03;0.77;;;;;;;27.63;31.75;97882.16;5057683;28;20060;-79
2023/10/04 10:18:48;;;;;;;2.67;1.20;;;;;;;27.79;31.07;97881.19;5057571;28;20057;-79
2023/10/04 10:21:16;;;;;;;2.97;1.00;;;;;;;27.68;30.63;97882.19;5057641;28;20049;-79
2023/10/04 10:23:55;;;;;;;1.77;1.00;;;;;;;27.70;30.38;97877.38;5057474;28;20053;-79
2023/10/04 10:26:26;;;;;;;4.10;1.10;;;;;;;27.68;30.43;97884.84;5058195;28;20052;-79
2023/10/04 10:29:00;;;;;;;2.17;1.00;;;;;;;27.76;30.15;97870.97;5057610;28;20131;-79
2023/10/04 10:31:29;;;;;;;2.47;0.75;;;;;;;28.01;29.51;97866.78;5056623;28;20049;-79
2023/10/04 10:34:00;;;;;;;4.95;0.80;;;;;;;28.20;29.66;97865.22;5056686;28;20447;-79
2023/10/04 10:36:31;;;;;;;2.50;1.00;;;;;;;28.45;29.50;97858.31;5058926;28;20094;-79
2023/10/04 10:38:59;;;;;;;3.53;1.13;;;;;;;28.68;29.04;97849.75;5061981;28;20088;-79
2023/10/04 10:42:07;;;;;;;2.35;0.90;;;;;;;29.09;29.43;97865.09;5063026;28;20110;-79
2023/10/04 10:44:38;;;;;;;1.90;0.70;;;;;;;29.42;27.87;97854.81;5062298;28;20067;-79
2023/10/04 10:47:12;;;;;;;2.65;0.68;;;;;;;29.53;27.62;97851.78;5059910;28;20053;-79
2023/10/04 10:49:48;;;;;;;2.78;0.70;;;;;;;29.60;27.79;97853.38;5061336;28;20052;-79
2023/10/04 10:52:30;;;;;;;2.88;0.80;;;;;;;29.77;27.06;97859.28;5059835;28;20045;-80
2023/10/04 10:55:00;;;;;;;3.75;1.08;;;;;;;29.99;27.26;97853.50;5060002;28;20052;-79
2023/10/04 10:57:29;;;;;;;2.42;0.90;;;;;;;30.11;26.15;97847.78;5059767;28;20084;-79
2023/10/04 11:00:04;;;;;;;1.85;0.70;;;;;;;30.16;25.64;97855.84;5059550;28;20055;-79
2023/10/04 11:02:32;;;;;;;2.03;0.98;;;;;;;30.27;25.67;97852.00;5059035;28;20053;-79
2023/10/04 11:04:59;;;;;;;1.50;0.68;;;;;;;30.64;25.25;97850.69;5058886;28;20048;-79
2023/10/04 11:07:27;;;;;;;4.97;0.82;;;;;;;31.18;24.79;97856.97;5059825;28;20111;-79
2023/10/04 11:09:56;;;;;;;1.98;0.90;;;;;;;31.35;24.30;97851.94;5059097;28;20072;-79
2023/10/04 11:12:24;;;;;;;2.47;0.90;;;;;;;31.20;24.60;97858.31;5060624;28;20063;-78
2023/10/04 11:14:54;;;;;;;0.88;0.47;;;;;;;30.97;24.20;97849.09;5076404;28;20083;-78
2023/10/04 11:17:23;;;;;;;2.08;0.75;;;;;;;30.89;23.82;97847.00;5075761;28;20041;-79
2023/10/04 11:19:51;;;;;;;1.55;0.60;;;;;;;30.99;23.39;97840.72;5063270;28;20056;-80
2023/10/04 11:22:20;;;;;;;3.42;0.80;;;;;;;30.76;23.23;97836.84;5061629;28;20603;-79
2023/10/04 11:24:50;;;;;;;1.33;0.55;;;;;;;30.66;23.18;97823.50;5061364;28;20103;-80
2023/10/04 11:27:21;;;;;;;1.52;0.57;;;;;;;30.78;23.08;97819.31;5061573;28;20508;-79
2023/10/04 11:29:50;;;;;;;2.20;0.50;;;;;;;30.89;23.09;97819.28;5061251;28;20531;-79
2023/10/04 11:32:18;;;;;;;1.85;0.55;;;;;;;30.94;23.34;97825.44;5060907;28;20049;-79
2023/10/04 11:34:50;;;;;;;1.85;0.50;;;;;;;30.92;23.60;97821.38;5060340;28;20071;-80
2023/10/04 11:37:18;;;;;;;1.58;0.55;;;;;;;31.19;22.80;97828.94;5060273;28;20049;-80
2023/10/04 11:39:46;;;;;;;1.98;0.65;;;;;;;31.49;22.14;97822.44;5059565;28;20060;-80
2023/10/04 11:42:19;;;;;;;2.30;0.60;;;;;;;31.35;21.84;97822.28;5059439;28;20508;-79
2023/10/04 11:44:47;;;;;;;1.30;0.60;;;;;;;30.96;22.19;97820.56;5058565;28;20049;-79
2023/10/04 11:47:27;;;;;;;1.63;0.70;;;;;;;30.35;22.90;97815.63;5058024;28;20080;-79